UKL37H ELLX-UKLL
Flight info
| Callsign | UKL37H |
|---|---|
| Flight time | 1h 54m |
| Altitude | 23000 |
| Route | ASMOX Y891 ROPUV/N0443F350 L607 UBIDU/N0440F370 L984 OKG DCT EROKA DCT ENORU DCT NETIR Z121 SKAVI L984 LUXAR L986 TEPNA/K0833F370 |
| Aircraft | A306/H-SDE3FGHIRWY/LB1 |
Departure
| Time | 2026-04-30 06:33 |
|---|---|
| Airport | Luxembourg-Findel International Airport (ELLX) |
Arrival
| Time | 2026-04-30 08:28 |
|---|---|
| Airport | Lviv International Airport (UKLL) |
| Time | Latitude | Longitude | Altitude | Speed | Heading |
|---|---|---|---|---|---|
| 2026-04-30 06:05 | 49.63547 | 6.22513 | 1221 ft | 0 kts | 60° |
| 2026-04-30 06:22 | 49.63546 | 6.22511 | 1221 ft | 2 kts | 60° |
| 2026-04-30 06:23 | 49.63534 | 6.22476 | 1221 ft | 4 kts | 65° |
| 2026-04-30 06:23 | 49.63524 | 6.22437 | 1221 ft | 4 kts | 77° |
| 2026-04-30 06:23 | 49.63522 | 6.22398 | 1221 ft | 4 kts | 110° |
| 2026-04-30 06:23 | 49.63530 | 6.22379 | 1221 ft | 1 kts | 150° |
| 2026-04-30 06:26 | 49.63499 | 6.22407 | 1222 ft | 10 kts | 149° |
| 2026-04-30 06:26 | 49.63442 | 6.22458 | 1222 ft | 9 kts | 152° |
| 2026-04-30 06:27 | 49.63406 | 6.22485 | 1222 ft | 6 kts | 161° |
| 2026-04-30 06:27 | 49.63331 | 6.22440 | 1224 ft | 17 kts | 232° |
| 2026-04-30 06:27 | 49.63273 | 6.22276 | 1230 ft | 16 kts | 244° |
| 2026-04-30 06:27 | 49.63229 | 6.22134 | 1247 ft | 14 kts | 244° |
| 2026-04-30 06:28 | 49.63184 | 6.21987 | 1239 ft | 17 kts | 244° |
| 2026-04-30 06:28 | 49.63128 | 6.21811 | 1232 ft | 20 kts | 243° |
| 2026-04-30 06:28 | 49.63064 | 6.21604 | 1232 ft | 22 kts | 245° |
| 2026-04-30 06:28 | 49.62995 | 6.21385 | 1241 ft | 23 kts | 243° |
| 2026-04-30 06:29 | 49.62926 | 6.21169 | 1247 ft | 23 kts | 245° |
| 2026-04-30 06:29 | 49.62872 | 6.20938 | 1252 ft | 18 kts | 233° |
| 2026-04-30 06:29 | 49.62830 | 6.20852 | 1256 ft | 0 kts | 236° |
| 2026-04-30 06:29 | 49.62819 | 6.20823 | 1258 ft | 9 kts | 240° |
| 2026-04-30 06:30 | 49.62744 | 6.20684 | 1258 ft | 25 kts | 221° |
| 2026-04-30 06:30 | 49.62620 | 6.20506 | 1256 ft | 24 kts | 227° |
| 2026-04-30 06:30 | 49.62507 | 6.20300 | 1235 ft | 26 kts | 234° |
| 2026-04-30 06:30 | 49.62403 | 6.20040 | 1219 ft | 31 kts | 236° |
| 2026-04-30 06:31 | 49.62297 | 6.19750 | 1202 ft | 31 kts | 240° |
| 2026-04-30 06:31 | 49.62183 | 6.19444 | 1186 ft | 35 kts | 239° |
| 2026-04-30 06:31 | 49.62059 | 6.19112 | 1169 ft | 37 kts | 240° |
| 2026-04-30 06:31 | 49.61968 | 6.18875 | 1161 ft | 13 kts | 238° |
| 2026-04-30 06:32 | 49.61939 | 6.18815 | 1163 ft | 11 kts | 226° |
| 2026-04-30 06:32 | 49.61842 | 6.18724 | 1162 ft | 19 kts | 180° |
| 2026-04-30 06:32 | 49.61784 | 6.18811 | 1164 ft | 8 kts | 81° |
| 2026-04-30 06:32 | 49.61806 | 6.18896 | 1167 ft | 21 kts | 62° |
| 2026-04-30 06:33 | 49.62019 | 6.19466 | 1183 ft | 100 kts | 60° |
| 2026-04-30 06:33 | 49.62472 | 6.20703 | 1332 ft | 160 kts | 60° |
| 2026-04-30 06:33 | 49.63102 | 6.22337 | 2101 ft | 196 kts | 60° |
| 2026-04-30 06:33 | 49.63869 | 6.24280 | 2970 ft | 220 kts | 65° |
| 2026-04-30 06:34 | 49.64637 | 6.26356 | 3924 ft | 227 kts | 65° |
| 2026-04-30 06:34 | 49.65426 | 6.28534 | 4806 ft | 238 kts | 65° |
| 2026-04-30 06:34 | 49.66245 | 6.30793 | 5757 ft | 245 kts | 64° |
| 2026-04-30 06:34 | 49.67096 | 6.33113 | 6660 ft | 252 kts | 63° |
| 2026-04-30 06:35 | 49.67987 | 6.35502 | 7577 ft | 260 kts | 60° |
| 2026-04-30 06:35 | 49.69181 | 6.37642 | 8581 ft | 269 kts | 41° |
| 2026-04-30 06:35 | 49.70883 | 6.38917 | 9608 ft | 280 kts | 17° |
| 2026-04-30 06:35 | 49.72790 | 6.39594 | 10426 ft | 281 kts | 24° |
| 2026-04-30 06:36 | 49.74331 | 6.41265 | 10919 ft | 274 kts | 54° |
| 2026-04-30 06:36 | 49.75161 | 6.43888 | 11344 ft | 272 kts | 72° |
| 2026-04-30 06:36 | 49.75665 | 6.46722 | 11781 ft | 274 kts | 77° |
| 2026-04-30 06:36 | 49.76060 | 6.49614 | 12233 ft | 276 kts | 78° |
| 2026-04-30 06:37 | 49.76455 | 6.52528 | 12684 ft | 278 kts | 78° |
| 2026-04-30 06:37 | 49.76892 | 6.55445 | 13143 ft | 279 kts | 76° |
| 2026-04-30 06:37 | 49.77378 | 6.58365 | 13611 ft | 281 kts | 75° |
| 2026-04-30 06:37 | 49.77900 | 6.61277 | 14087 ft | 282 kts | 74° |
| 2026-04-30 06:38 | 49.78449 | 6.64205 | 14513 ft | 284 kts | 73° |
| 2026-04-30 06:38 | 49.79012 | 6.67144 | 14936 ft | 286 kts | 73° |
| 2026-04-30 06:38 | 49.79580 | 6.70095 | 15373 ft | 287 kts | 73° |
| 2026-04-30 06:38 | 49.80149 | 6.73067 | 15815 ft | 289 kts | 73° |
| 2026-04-30 06:39 | 49.80719 | 6.76058 | 16253 ft | 291 kts | 73° |
| 2026-04-30 06:39 | 49.81289 | 6.79066 | 16716 ft | 293 kts | 73° |
| 2026-04-30 06:39 | 49.81863 | 6.82102 | 17185 ft | 294 kts | 73° |
| 2026-04-30 06:39 | 49.82437 | 6.85146 | 17652 ft | 296 kts | 73° |
| 2026-04-30 06:40 | 49.83016 | 6.88227 | 18129 ft | 298 kts | 73° |
| 2026-04-30 06:40 | 49.83596 | 6.91317 | 18620 ft | 300 kts | 73° |
| 2026-04-30 06:40 | 49.84180 | 6.94436 | 19041 ft | 302 kts | 72° |
| 2026-04-30 06:40 | 49.84765 | 6.97560 | 19464 ft | 304 kts | 72° |
| 2026-04-30 06:41 | 49.85354 | 7.00712 | 19912 ft | 305 kts | 72° |
| 2026-04-30 06:41 | 49.85946 | 7.03883 | 20350 ft | 307 kts | 72° |
| 2026-04-30 06:41 | 49.86539 | 7.07066 | 20800 ft | 309 kts | 72° |
| 2026-04-30 06:41 | 49.87133 | 7.10269 | 21261 ft | 310 kts | 72° |
| 2026-04-30 06:42 | 49.87731 | 7.13495 | 21727 ft | 312 kts | 72° |
| 2026-04-30 06:42 | 49.88330 | 7.16733 | 22190 ft | 314 kts | 72° |
| 2026-04-30 06:42 | 49.88933 | 7.20002 | 22657 ft | 316 kts | 72° |
| 2026-04-30 06:42 | 49.89540 | 7.23290 | 23149 ft | 318 kts | 72° |
| 2026-04-30 06:43 | 49.90149 | 7.26597 | 23641 ft | 320 kts | 72° |
| 2026-04-30 06:43 | 49.90762 | 7.29927 | 24121 ft | 322 kts | 72° |
| 2026-04-30 06:43 | 49.91376 | 7.33275 | 24540 ft | 323 kts | 72° |
| 2026-04-30 06:43 | 49.91992 | 7.36636 | 24973 ft | 324 kts | 72° |
| 2026-04-30 06:44 | 49.92608 | 7.40008 | 25392 ft | 326 kts | 72° |
| 2026-04-30 06:44 | 49.93216 | 7.43345 | 25813 ft | 327 kts | 72° |
| 2026-04-30 06:44 | 49.93833 | 7.46741 | 26269 ft | 326 kts | 72° |
| 2026-04-30 06:44 | 49.94448 | 7.50122 | 26734 ft | 325 kts | 72° |
| 2026-04-30 06:45 | 49.95059 | 7.53493 | 27182 ft | 324 kts | 72° |
| 2026-04-30 06:45 | 49.95676 | 7.56897 | 27643 ft | 323 kts | 72° |
| 2026-04-30 06:45 | 49.96274 | 7.60205 | 28110 ft | 322 kts | 72° |
| 2026-04-30 06:45 | 49.96877 | 7.63548 | 28590 ft | 321 kts | 72° |
| 2026-04-30 06:46 | 49.97477 | 7.66880 | 29076 ft | 319 kts | 72° |
| 2026-04-30 06:46 | 49.98073 | 7.70198 | 29585 ft | 318 kts | 72° |
| 2026-04-30 06:46 | 49.98672 | 7.73533 | 29889 ft | 324 kts | 72° |
| 2026-04-30 06:46 | 49.99287 | 7.76957 | 30113 ft | 333 kts | 72° |
| 2026-04-30 06:47 | 49.99917 | 7.80461 | 30335 ft | 341 kts | 72° |
| 2026-04-30 06:47 | 50.00559 | 7.84048 | 30544 ft | 349 kts | 72° |
| 2026-04-30 06:47 | 50.01214 | 7.87726 | 30725 ft | 356 kts | 73° |
| 2026-04-30 06:47 | 50.01880 | 7.91475 | 30899 ft | 364 kts | 73° |
| 2026-04-30 06:48 | 50.02559 | 7.95303 | 31051 ft | 371 kts | 73° |
| 2026-04-30 06:48 | 50.03248 | 7.99204 | 31202 ft | 377 kts | 73° |
| 2026-04-30 06:48 | 50.03949 | 8.03172 | 31350 ft | 384 kts | 73° |
| 2026-04-30 06:48 | 50.04523 | 8.07265 | 31494 ft | 391 kts | 79° |
| 2026-04-30 06:49 | 50.04777 | 8.11513 | 31629 ft | 398 kts | 84° |
| 2026-04-30 06:49 | 50.04906 | 8.15845 | 31762 ft | 404 kts | 85° |
| 2026-04-30 06:49 | 50.04982 | 8.20248 | 31892 ft | 410 kts | 86° |
| 2026-04-30 06:49 | 50.05029 | 8.24703 | 32038 ft | 414 kts | 86° |
| 2026-04-30 06:50 | 50.05066 | 8.29212 | 32170 ft | 419 kts | 86° |
| 2026-04-30 06:50 | 50.05103 | 8.33757 | 32342 ft | 421 kts | 86° |
| 2026-04-30 06:50 | 50.05141 | 8.38315 | 32605 ft | 422 kts | 86° |
| 2026-04-30 06:50 | 50.05182 | 8.42880 | 32912 ft | 421 kts | 86° |
| 2026-04-30 06:51 | 50.05224 | 8.47419 | 33284 ft | 420 kts | 86° |
| 2026-04-30 06:51 | 50.05253 | 8.50492 | 33512 ft | 419 kts | 86° |
| 2026-04-30 06:51 | 50.05295 | 8.54954 | 33852 ft | 418 kts | 86° |
| 2026-04-30 06:51 | 50.05337 | 8.59471 | 34184 ft | 416 kts | 86° |
| 2026-04-30 06:52 | 50.05381 | 8.63970 | 34507 ft | 415 kts | 86° |
| 2026-04-30 06:52 | 50.05446 | 8.68451 | 34754 ft | 415 kts | 85° |
| 2026-04-30 06:52 | 50.05526 | 8.72945 | 34966 ft | 415 kts | 85° |
| 2026-04-30 06:52 | 50.05610 | 8.77436 | 35178 ft | 416 kts | 85° |
| 2026-04-30 06:53 | 50.05696 | 8.81935 | 35393 ft | 416 kts | 85° |
| 2026-04-30 06:53 | 50.05781 | 8.86440 | 35623 ft | 417 kts | 85° |
| 2026-04-30 06:53 | 50.05864 | 8.90957 | 35837 ft | 417 kts | 85° |
| 2026-04-30 06:53 | 50.05944 | 8.95464 | 36055 ft | 417 kts | 85° |
| 2026-04-30 06:54 | 50.06022 | 8.99975 | 36270 ft | 418 kts | 85° |
| 2026-04-30 06:54 | 50.06096 | 9.04498 | 36484 ft | 418 kts | 85° |
| 2026-04-30 06:54 | 50.06166 | 9.09025 | 36690 ft | 418 kts | 85° |
| 2026-04-30 06:54 | 50.06234 | 9.13550 | 36882 ft | 419 kts | 85° |
| 2026-04-30 06:55 | 50.06300 | 9.18082 | 37100 ft | 420 kts | 85° |
| 2026-04-30 06:55 | 50.06364 | 9.22625 | 37292 ft | 420 kts | 85° |
| 2026-04-30 06:55 | 50.06427 | 9.27182 | 37403 ft | 421 kts | 85° |
| 2026-04-30 06:56 | 50.06545 | 9.36220 | 37403 ft | 415 kts | 85° |
| 2026-04-30 06:56 | 50.06655 | 9.45199 | 37409 ft | 415 kts | 85° |
| 2026-04-30 06:57 | 50.06761 | 9.54174 | 37402 ft | 415 kts | 85° |
| 2026-04-30 06:57 | 50.06858 | 9.63144 | 37441 ft | 415 kts | 85° |
| 2026-04-30 06:58 | 50.06945 | 9.72112 | 37418 ft | 415 kts | 85° |
| 2026-04-30 06:58 | 50.07030 | 9.81116 | 37417 ft | 415 kts | 85° |
| 2026-04-30 06:59 | 50.07116 | 9.90109 | 37414 ft | 415 kts | 85° |
| 2026-04-30 06:59 | 50.07195 | 9.99093 | 37435 ft | 415 kts | 85° |
| 2026-04-30 07:00 | 50.07268 | 10.08020 | 37435 ft | 415 kts | 85° |
| 2026-04-30 07:00 | 50.07320 | 10.17017 | 37451 ft | 416 kts | 85° |
| 2026-04-30 07:01 | 50.07353 | 10.26019 | 37450 ft | 416 kts | 85° |
| 2026-04-30 07:01 | 50.07394 | 10.35022 | 37451 ft | 416 kts | 85° |
| 2026-04-30 07:02 | 50.07437 | 10.44030 | 37445 ft | 416 kts | 85° |
| 2026-04-30 07:02 | 50.07471 | 10.53039 | 37445 ft | 416 kts | 85° |
| 2026-04-30 07:03 | 50.07500 | 10.62044 | 37451 ft | 417 kts | 85° |
| 2026-04-30 07:03 | 50.07521 | 10.71079 | 37447 ft | 417 kts | 85° |
| 2026-04-30 07:04 | 50.07531 | 10.80117 | 37442 ft | 417 kts | 85° |
| 2026-04-30 07:04 | 50.07532 | 10.89147 | 37441 ft | 417 kts | 85° |
| 2026-04-30 07:05 | 50.07521 | 11.02688 | 37464 ft | 417 kts | 85° |
| 2026-04-30 07:05 | 50.07505 | 11.11712 | 37443 ft | 417 kts | 85° |
| 2026-04-30 07:06 | 50.07483 | 11.20733 | 37447 ft | 417 kts | 85° |
| 2026-04-30 07:06 | 50.07454 | 11.29748 | 37450 ft | 417 kts | 85° |
| 2026-04-30 07:07 | 50.07416 | 11.38766 | 37444 ft | 416 kts | 85° |
| 2026-04-30 07:07 | 50.07373 | 11.47785 | 37446 ft | 416 kts | 85° |
| 2026-04-30 07:08 | 50.07323 | 11.56795 | 37446 ft | 417 kts | 85° |
| 2026-04-30 07:08 | 50.07266 | 11.65812 | 37456 ft | 416 kts | 85° |
| 2026-04-30 07:09 | 50.07208 | 11.74807 | 37459 ft | 416 kts | 85° |
| 2026-04-30 07:09 | 50.07143 | 11.83808 | 37452 ft | 416 kts | 85° |
| 2026-04-30 07:10 | 50.07070 | 11.92751 | 37448 ft | 416 kts | 85° |
| 2026-04-30 07:10 | 50.06993 | 12.01805 | 37457 ft | 415 kts | 85° |
| 2026-04-30 07:11 | 50.06907 | 12.10798 | 37460 ft | 415 kts | 85° |
| 2026-04-30 07:11 | 50.06799 | 12.19777 | 37461 ft | 415 kts | 85° |
| 2026-04-30 07:12 | 50.06681 | 12.28768 | 37464 ft | 415 kts | 85° |
| 2026-04-30 07:12 | 50.06558 | 12.37743 | 37460 ft | 415 kts | 85° |
| 2026-04-30 07:13 | 50.06614 | 12.46705 | 37469 ft | 413 kts | 82° |
| 2026-04-30 07:13 | 50.06902 | 12.55613 | 37468 ft | 412 kts | 81° |
| 2026-04-30 07:14 | 50.07204 | 12.64522 | 37474 ft | 412 kts | 82° |
| 2026-04-30 07:14 | 50.07472 | 12.73431 | 37478 ft | 412 kts | 82° |
| 2026-04-30 07:15 | 50.07716 | 12.82341 | 37477 ft | 412 kts | 82° |
| 2026-04-30 07:15 | 50.07946 | 12.91249 | 37500 ft | 412 kts | 82° |
| 2026-04-30 07:16 | 50.08175 | 13.00184 | 37482 ft | 413 kts | 82° |
| 2026-04-30 07:16 | 50.08396 | 13.09112 | 37481 ft | 413 kts | 82° |
| 2026-04-30 07:17 | 50.08611 | 13.18042 | 37478 ft | 413 kts | 82° |
| 2026-04-30 07:18 | 50.08923 | 13.31442 | 37480 ft | 413 kts | 82° |
| 2026-04-30 07:18 | 50.09121 | 13.40377 | 37481 ft | 413 kts | 82° |
| 2026-04-30 07:19 | 50.09313 | 13.49307 | 37482 ft | 413 kts | 82° |
| 2026-04-30 07:19 | 50.09494 | 13.58172 | 37480 ft | 412 kts | 82° |
| 2026-04-30 07:20 | 50.09687 | 13.67130 | 37480 ft | 410 kts | 80° |
| 2026-04-30 07:20 | 50.10400 | 13.75883 | 37483 ft | 407 kts | 76° |
| 2026-04-30 07:21 | 50.11267 | 13.84585 | 37512 ft | 406 kts | 76° |
| 2026-04-30 07:21 | 50.12155 | 13.93230 | 37481 ft | 407 kts | 76° |
| 2026-04-30 07:22 | 50.13476 | 14.06310 | 37503 ft | 407 kts | 76° |
| 2026-04-30 07:22 | 50.14341 | 14.15042 | 37507 ft | 407 kts | 76° |
| 2026-04-30 07:23 | 50.15197 | 14.23771 | 37509 ft | 407 kts | 76° |
| 2026-04-30 07:23 | 50.16047 | 14.32501 | 37510 ft | 407 kts | 76° |
| 2026-04-30 07:24 | 50.16894 | 14.41247 | 37506 ft | 408 kts | 76° |
| 2026-04-30 07:24 | 50.17733 | 14.49997 | 37506 ft | 408 kts | 76° |
| 2026-04-30 07:25 | 50.18565 | 14.58754 | 37511 ft | 408 kts | 76° |
| 2026-04-30 07:25 | 50.19390 | 14.67505 | 37507 ft | 408 kts | 76° |
| 2026-04-30 07:26 | 50.20208 | 14.76262 | 37503 ft | 408 kts | 76° |
| 2026-04-30 07:26 | 50.21020 | 14.85019 | 37539 ft | 408 kts | 76° |
| 2026-04-30 07:27 | 50.21829 | 14.93806 | 37498 ft | 409 kts | 76° |
| 2026-04-30 07:27 | 50.22629 | 15.02583 | 37497 ft | 409 kts | 76° |
| 2026-04-30 07:28 | 50.23423 | 15.11372 | 37497 ft | 409 kts | 77° |
| 2026-04-30 07:28 | 50.24211 | 15.20168 | 37499 ft | 409 kts | 77° |
| 2026-04-30 07:29 | 50.24991 | 15.28956 | 37498 ft | 408 kts | 77° |
| 2026-04-30 07:29 | 50.25765 | 15.37749 | 37517 ft | 409 kts | 77° |
| 2026-04-30 07:30 | 50.26914 | 15.50941 | 37494 ft | 410 kts | 77° |
| 2026-04-30 07:31 | 50.27679 | 15.59835 | 37494 ft | 410 kts | 77° |
| 2026-04-30 07:31 | 50.28427 | 15.68617 | 37505 ft | 410 kts | 77° |
| 2026-04-30 07:32 | 50.29173 | 15.77450 | 37496 ft | 409 kts | 77° |
| 2026-04-30 07:32 | 50.29912 | 15.86267 | 37515 ft | 410 kts | 77° |
| 2026-04-30 07:33 | 50.30650 | 15.95138 | 37496 ft | 412 kts | 77° |
| 2026-04-30 07:33 | 50.31382 | 16.04047 | 37495 ft | 413 kts | 77° |
| 2026-04-30 07:34 | 50.32106 | 16.12956 | 37492 ft | 413 kts | 77° |
| 2026-04-30 07:34 | 50.32823 | 16.21867 | 37492 ft | 413 kts | 77° |
| 2026-04-30 07:35 | 50.33481 | 16.30795 | 37489 ft | 416 kts | 81° |
| 2026-04-30 07:35 | 50.33207 | 16.38370 | 37494 ft | 427 kts | 94° |
| 2026-04-30 07:36 | 50.31396 | 16.47356 | 37487 ft | 437 kts | 104° |
| 2026-04-30 07:36 | 50.29074 | 16.56182 | 37484 ft | 440 kts | 106° |
| 2026-04-30 07:37 | 50.26675 | 16.64981 | 37480 ft | 440 kts | 106° |
| 2026-04-30 07:37 | 50.24299 | 16.73783 | 37484 ft | 439 kts | 106° |
| 2026-04-30 07:38 | 50.21939 | 16.82598 | 37484 ft | 441 kts | 106° |
| 2026-04-30 07:38 | 50.19571 | 16.91447 | 37476 ft | 442 kts | 106° |
| 2026-04-30 07:39 | 50.17193 | 17.00284 | 37476 ft | 442 kts | 106° |
| 2026-04-30 07:39 | 50.14808 | 17.09111 | 37476 ft | 442 kts | 107° |
| 2026-04-30 07:40 | 50.12411 | 17.17939 | 37508 ft | 442 kts | 107° |
| 2026-04-30 07:40 | 50.10008 | 17.26766 | 37470 ft | 443 kts | 107° |
| 2026-04-30 07:41 | 50.07597 | 17.35593 | 37471 ft | 443 kts | 107° |
| 2026-04-30 07:41 | 50.05177 | 17.44409 | 37469 ft | 443 kts | 107° |
| 2026-04-30 07:42 | 50.02752 | 17.53220 | 37467 ft | 443 kts | 107° |
| 2026-04-30 07:42 | 50.00318 | 17.62023 | 37467 ft | 444 kts | 107° |
| 2026-04-30 07:43 | 49.97869 | 17.70851 | 37472 ft | 445 kts | 107° |
| 2026-04-30 07:43 | 49.95409 | 17.79685 | 37462 ft | 446 kts | 108° |
| 2026-04-30 07:44 | 49.92936 | 17.88535 | 37467 ft | 448 kts | 108° |
| 2026-04-30 07:44 | 49.90450 | 17.97395 | 37482 ft | 448 kts | 108° |
| 2026-04-30 07:45 | 49.87953 | 18.06257 | 37474 ft | 448 kts | 108° |
| 2026-04-30 07:45 | 49.85468 | 18.15044 | 37481 ft | 448 kts | 108° |
| 2026-04-30 07:46 | 49.82962 | 18.23880 | 37482 ft | 448 kts | 108° |
| 2026-04-30 07:46 | 49.80448 | 18.32709 | 37481 ft | 448 kts | 108° |
| 2026-04-30 07:47 | 49.77927 | 18.41528 | 37478 ft | 449 kts | 109° |
| 2026-04-30 07:47 | 49.75393 | 18.50366 | 37468 ft | 450 kts | 109° |
| 2026-04-30 07:48 | 49.72848 | 18.59201 | 37452 ft | 450 kts | 109° |
| 2026-04-30 07:48 | 49.71023 | 18.68314 | 37444 ft | 439 kts | 93° |
| 2026-04-30 07:49 | 49.71076 | 18.77582 | 37436 ft | 427 kts | 75° |
| 2026-04-30 07:49 | 49.72641 | 18.86369 | 37442 ft | 425 kts | 68° |
| 2026-04-30 07:50 | 49.74502 | 18.95055 | 37433 ft | 426 kts | 68° |
| 2026-04-30 07:50 | 49.76380 | 19.03755 | 37427 ft | 426 kts | 68° |
| 2026-04-30 07:51 | 49.78218 | 19.12461 | 37426 ft | 425 kts | 68° |
| 2026-04-30 07:51 | 49.80027 | 19.21157 | 37423 ft | 424 kts | 68° |
| 2026-04-30 07:52 | 49.81822 | 19.29844 | 37427 ft | 424 kts | 68° |
| 2026-04-30 07:52 | 49.83614 | 19.38554 | 37443 ft | 424 kts | 68° |
| 2026-04-30 07:53 | 49.85397 | 19.47248 | 37430 ft | 427 kts | 69° |
| 2026-04-30 07:53 | 49.87188 | 19.56035 | 37431 ft | 428 kts | 69° |
| 2026-04-30 07:54 | 49.88973 | 19.64840 | 37412 ft | 428 kts | 69° |
| 2026-04-30 07:54 | 49.90750 | 19.73634 | 37417 ft | 427 kts | 69° |
| 2026-04-30 07:55 | 49.92518 | 19.82424 | 37444 ft | 426 kts | 69° |
| 2026-04-30 07:55 | 49.93848 | 19.91420 | 37456 ft | 432 kts | 80° |
| 2026-04-30 07:56 | 49.94058 | 20.00799 | 37440 ft | 437 kts | 85° |
| 2026-04-30 07:56 | 49.94022 | 20.10251 | 37423 ft | 438 kts | 86° |
| 2026-04-30 07:57 | 49.93938 | 20.19706 | 37412 ft | 438 kts | 86° |
| 2026-04-30 07:57 | 49.93863 | 20.29176 | 37403 ft | 438 kts | 86° |
| 2026-04-30 07:58 | 49.93795 | 20.38623 | 37399 ft | 438 kts | 86° |
| 2026-04-30 07:58 | 49.93725 | 20.48091 | 37391 ft | 440 kts | 86° |
| 2026-04-30 07:59 | 49.93646 | 20.57593 | 37399 ft | 441 kts | 86° |
| 2026-04-30 07:59 | 49.93559 | 20.67105 | 37394 ft | 441 kts | 86° |
| 2026-04-30 08:00 | 49.93417 | 20.81364 | 37404 ft | 439 kts | 86° |
| 2026-04-30 08:00 | 49.93318 | 20.90829 | 37426 ft | 439 kts | 87° |
| 2026-04-30 08:01 | 49.93213 | 21.00327 | 37408 ft | 441 kts | 87° |
| 2026-04-30 08:01 | 49.93101 | 21.09847 | 37407 ft | 441 kts | 87° |
| 2026-04-30 08:02 | 49.92262 | 21.19335 | 37410 ft | 450 kts | 102° |
| 2026-04-30 08:02 | 49.91219 | 21.23920 | 37414 ft | 452 kts | 107° |
| 2026-04-30 08:03 | 49.86240 | 21.41846 | 37414 ft | 455 kts | 110° |
| 2026-04-30 08:04 | 49.83673 | 21.50810 | 37416 ft | 455 kts | 110° |
| 2026-04-30 08:04 | 49.81123 | 21.59780 | 37419 ft | 455 kts | 110° |
| 2026-04-30 08:05 | 49.78576 | 21.68744 | 37417 ft | 455 kts | 110° |
| 2026-04-30 08:05 | 49.76025 | 21.77703 | 37424 ft | 455 kts | 110° |
| 2026-04-30 08:06 | 49.73460 | 21.86675 | 37317 ft | 460 kts | 110° |
| 2026-04-30 08:06 | 49.72161 | 21.91210 | 36740 ft | 463 kts | 110° |
| 2026-04-30 08:06 | 49.70852 | 21.95764 | 35994 ft | 463 kts | 110° |
| 2026-04-30 08:06 | 49.69543 | 22.00306 | 35269 ft | 463 kts | 110° |
| 2026-04-30 08:07 | 49.68236 | 22.04833 | 34561 ft | 461 kts | 110° |
| 2026-04-30 08:07 | 49.66932 | 22.09345 | 33764 ft | 459 kts | 109° |
| 2026-04-30 08:07 | 49.65631 | 22.13834 | 32963 ft | 456 kts | 109° |
| 2026-04-30 08:07 | 49.64339 | 22.18287 | 32166 ft | 453 kts | 109° |
| 2026-04-30 08:08 | 49.63054 | 22.22705 | 31396 ft | 450 kts | 109° |
| 2026-04-30 08:08 | 49.61780 | 22.27078 | 30638 ft | 446 kts | 108° |
| 2026-04-30 08:08 | 49.60512 | 22.31423 | 29793 ft | 442 kts | 108° |
| 2026-04-30 08:08 | 49.59255 | 22.35722 | 28932 ft | 438 kts | 108° |
| 2026-04-30 08:09 | 49.58024 | 22.39920 | 28065 ft | 423 kts | 108° |
| 2026-04-30 08:09 | 49.56831 | 22.43979 | 27241 ft | 409 kts | 108° |
| 2026-04-30 08:09 | 49.55675 | 22.47912 | 26429 ft | 397 kts | 108° |
| 2026-04-30 08:09 | 49.54556 | 22.51720 | 25656 ft | 386 kts | 108° |
| 2026-04-30 08:10 | 49.53459 | 22.55445 | 24920 ft | 378 kts | 108° |
| 2026-04-30 08:10 | 49.52381 | 22.59104 | 24182 ft | 371 kts | 108° |
| 2026-04-30 08:10 | 49.51378 | 22.62704 | 23436 ft | 360 kts | 103° |
| 2026-04-30 08:10 | 49.50755 | 22.66323 | 23109 ft | 345 kts | 93° |
| 2026-04-30 08:11 | 49.50592 | 22.69966 | 22826 ft | 339 kts | 84° |
| 2026-04-30 08:11 | 49.50662 | 22.73581 | 22554 ft | 337 kts | 82° |
| 2026-04-30 08:11 | 49.50768 | 22.77185 | 22280 ft | 337 kts | 82° |
| 2026-04-30 08:11 | 49.50872 | 22.80732 | 22019 ft | 335 kts | 82° |
| 2026-04-30 08:12 | 49.50974 | 22.84352 | 21753 ft | 335 kts | 82° |
| 2026-04-30 08:12 | 49.51072 | 22.87892 | 21501 ft | 334 kts | 83° |
| 2026-04-30 08:12 | 49.51167 | 22.91460 | 21231 ft | 334 kts | 83° |
| 2026-04-30 08:12 | 49.51258 | 22.95026 | 20972 ft | 333 kts | 83° |
| 2026-04-30 08:13 | 49.51348 | 22.98578 | 20742 ft | 332 kts | 83° |
| 2026-04-30 08:13 | 49.51437 | 23.02133 | 20483 ft | 333 kts | 83° |
| 2026-04-30 08:13 | 49.51525 | 23.05688 | 20220 ft | 332 kts | 83° |
| 2026-04-30 08:13 | 49.51610 | 23.09228 | 19948 ft | 326 kts | 83° |
| 2026-04-30 08:14 | 49.51688 | 23.12636 | 19585 ft | 313 kts | 83° |
| 2026-04-30 08:14 | 49.51764 | 23.15929 | 19138 ft | 305 kts | 83° |
| 2026-04-30 08:14 | 49.51842 | 23.19192 | 18678 ft | 305 kts | 83° |
| 2026-04-30 08:14 | 49.51919 | 23.22463 | 18193 ft | 307 kts | 83° |
| 2026-04-30 08:15 | 49.51996 | 23.25753 | 17721 ft | 308 kts | 83° |
| 2026-04-30 08:15 | 49.52072 | 23.29040 | 17238 ft | 309 kts | 84° |
| 2026-04-30 08:15 | 49.52147 | 23.32342 | 16761 ft | 309 kts | 84° |
| 2026-04-30 08:15 | 49.52219 | 23.35658 | 16286 ft | 309 kts | 84° |
| 2026-04-30 08:16 | 49.52291 | 23.38966 | 15825 ft | 309 kts | 84° |
| 2026-04-30 08:16 | 49.52362 | 23.42274 | 15495 ft | 310 kts | 84° |
| 2026-04-30 08:16 | 49.52434 | 23.45599 | 15222 ft | 313 kts | 84° |
| 2026-04-30 08:16 | 49.52525 | 23.48979 | 14550 ft | 317 kts | 81° |
| 2026-04-30 08:17 | 49.52914 | 23.52212 | 14122 ft | 299 kts | 72° |
| 2026-04-30 08:17 | 49.53466 | 23.55227 | 13520 ft | 289 kts | 70° |
| 2026-04-30 08:17 | 49.54013 | 23.57964 | 12696 ft | 289 kts | 70° |
| 2026-04-30 08:17 | 49.54628 | 23.60925 | 11776 ft | 291 kts | 70° |
| 2026-04-30 08:18 | 49.55254 | 23.63899 | 10897 ft | 292 kts | 70° |
| 2026-04-30 08:18 | 49.55884 | 23.66875 | 10059 ft | 291 kts | 70° |
| 2026-04-30 08:18 | 49.56501 | 23.69787 | 9551 ft | 279 kts | 70° |
| 2026-04-30 08:18 | 49.57093 | 23.72576 | 9453 ft | 273 kts | 70° |
| 2026-04-30 08:19 | 49.57680 | 23.75339 | 9430 ft | 270 kts | 70° |
| 2026-04-30 08:19 | 49.58262 | 23.78080 | 9126 ft | 266 kts | 70° |
| 2026-04-30 08:19 | 49.58837 | 23.80788 | 8393 ft | 266 kts | 70° |
| 2026-04-30 08:19 | 49.59410 | 23.83490 | 7709 ft | 264 kts | 70° |
| 2026-04-30 08:20 | 49.59978 | 23.86175 | 7157 ft | 263 kts | 70° |
| 2026-04-30 08:20 | 49.60545 | 23.88857 | 6387 ft | 264 kts | 70° |
| 2026-04-30 08:20 | 49.61115 | 23.91552 | 5563 ft | 265 kts | 70° |
| 2026-04-30 08:20 | 49.61685 | 23.94258 | 4739 ft | 266 kts | 70° |
| 2026-04-30 08:21 | 49.62255 | 23.96963 | 3978 ft | 266 kts | 70° |
| 2026-04-30 08:21 | 49.62828 | 23.99691 | 3396 ft | 268 kts | 70° |
| 2026-04-30 08:21 | 49.63395 | 24.02389 | 3145 ft | 257 kts | 70° |
| 2026-04-30 08:21 | 49.63932 | 24.04960 | 3134 ft | 250 kts | 70° |
| 2026-04-30 08:22 | 49.64460 | 24.07476 | 3256 ft | 250 kts | 70° |
| 2026-04-30 08:22 | 49.64823 | 24.09210 | 3397 ft | 252 kts | 70° |
| 2026-04-30 08:22 | 49.65582 | 24.12558 | 3423 ft | 242 kts | 61° |
| 2026-04-30 08:22 | 49.66683 | 24.14202 | 3418 ft | 205 kts | 21° |
| 2026-04-30 08:23 | 49.67958 | 24.14225 | 3406 ft | 173 kts | 342° |
| 2026-04-30 08:23 | 49.68980 | 24.13490 | 3414 ft | 157 kts | 332° |
| 2026-04-30 08:23 | 49.69850 | 24.12498 | 3207 ft | 155 kts | 321° |
| 2026-04-30 08:23 | 49.70382 | 24.11733 | 3055 ft | 155 kts | 319° |
| 2026-04-30 08:24 | 49.71161 | 24.10570 | 2981 ft | 156 kts | 318° |
| 2026-04-30 08:24 | 49.71945 | 24.09390 | 2975 ft | 157 kts | 318° |
| 2026-04-30 08:24 | 49.72723 | 24.08224 | 2973 ft | 154 kts | 318° |
| 2026-04-30 08:24 | 49.73480 | 24.07091 | 2980 ft | 145 kts | 319° |
| 2026-04-30 08:25 | 49.74175 | 24.06047 | 2841 ft | 135 kts | 319° |
| 2026-04-30 08:25 | 49.74823 | 24.05074 | 2630 ft | 126 kts | 318° |
| 2026-04-30 08:25 | 49.75453 | 24.04128 | 2464 ft | 126 kts | 318° |
| 2026-04-30 08:25 | 49.76086 | 24.03178 | 2284 ft | 127 kts | 318° |
| 2026-04-30 08:26 | 49.76719 | 24.02230 | 2097 ft | 126 kts | 319° |
| 2026-04-30 08:26 | 49.77342 | 24.01278 | 1911 ft | 126 kts | 317° |
| 2026-04-30 08:26 | 49.77941 | 24.00303 | 1656 ft | 125 kts | 315° |
| 2026-04-30 08:26 | 49.78557 | 23.99352 | 1476 ft | 125 kts | 316° |
| 2026-04-30 08:27 | 49.79184 | 23.98430 | 1320 ft | 124 kts | 320° |
| 2026-04-30 08:27 | 49.79822 | 23.97559 | 1162 ft | 126 kts | 320° |
| 2026-04-30 08:27 | 49.80448 | 23.96626 | 1074 ft | 114 kts | 317° |
| 2026-04-30 08:27 | 49.80909 | 23.95933 | 1070 ft | 70 kts | 316° |
| 2026-04-30 08:28 | 49.81145 | 23.95583 | 1075 ft | 27 kts | 324° |
| 2026-04-30 08:28 | 49.81232 | 23.95586 | 1074 ft | 6 kts | 27° |
| 2026-04-30 08:28 | 49.81245 | 23.95597 | 1074 ft | 0 kts | 29° |
| 2026-04-30 08:29 | 49.81246 | 23.95599 | 1074 ft | 3 kts | 29° |
| 2026-04-30 08:29 | 49.81267 | 23.95669 | 1074 ft | 9 kts | 93° |
| 2026-04-30 08:29 | 49.81230 | 23.95787 | 1074 ft | 12 kts | 128° |
| 2026-04-30 08:30 | 49.81185 | 23.95861 | 1070 ft | 0 kts | 134° |
| 2026-04-30 08:30 | 49.81178 | 23.95871 | 1069 ft | 8 kts | 134° |
| 2026-04-30 08:30 | 49.81121 | 23.95963 | 1075 ft | 11 kts | 133° |
| 2026-04-30 08:31 | 49.81107 | 23.96000 | 1074 ft | 6 kts | 110° |
| 2026-04-30 08:31 | 49.81116 | 23.96058 | 1074 ft | 5 kts | 63° |
| 2026-04-30 08:31 | 49.81146 | 23.96121 | 1075 ft | 4 kts | 48° |
| 2026-04-30 08:31 | 49.81161 | 23.96146 | 1072 ft | 1 kts | 47° |
| 2026-04-30 08:32 | 49.81165 | 23.96153 | 1073 ft | 0 kts | 46° |